Saint Stephen, SC (29479)

5:45 AM EST on January 24, 2017 (GMT -0500)
Bonneau Beach | | Change Station
Active Advisory: Small Craft Advisory

Elev 105 ft 33.33 °N, 80.00 °W | Updated 9 seconds ago

Clear
Clear
53.1 °F
Feels Like 53.1 °F
N
10.5
Wind Variable Wind from West
Gusts 12.3 mph

Today
High -- | Low -- °F
--% Chance of Precip.
Yesterday
High -- | Low -- °F
Precip. -- in
Pressure 29.61 in
Visibility 10.0 miles
Clouds Clear
Dew Point 46 °F
Humidity 78%
Rainfall 0.00 in
Snow Depth Not available.
7:20 AM 5:43 PM
Waning Crescent, 12% visible
METAR KMKS 241035Z AUTO 27004KT 10SM CLR 09/07 A2961 RMK AO2
Pressure 29.61 in
Visibility 10.0 miles
Clouds Clear
Dew Point 46 °F
Humidity 78%
Rainfall 0.00 in
Snow Depth Not available.
7:20 AM 5:43 PM
Waning Crescent, 12% visible
METAR KMKS 241035Z AUTO 27004KT 10SM CLR 09/07 A2961 RMK AO2

Get Your Daily Forecast Email!

Thanks for signing up!

Be on the lookout for a verification email in your inbox.

You'll start receiving the daily forecast at 8 AM.

×

10-Day Weather Forecast

Almanac

Astronomy

Jan. 24, 2017 Rise Set
Actual Time
Civil Twilight
Nautical Twilight
Astronomical Twilight
Moon
Length of Visible Light
Length of Day
Tomorrow will be .
, % of the Moon is Illuminated

Today's Extremes

State Highs State Lows

Community

WunderPhotos

Upload Photos

1,962,540 photos uploaded!

WunderBlog® & News

Nearby

Air Quality

  Air Quality AQ Index Pollutant
Not available.

Snow Depth

Station Depth Elevation

Earthquake Activity

City Distance Mag. Time & Date
Minimum magnitude displayed is 2.5.

Coastal Water Temperatures

Place Temperature

Stations

Nearby Weather Stations

Station Location Temp. Windchill Dew Point Humidity Wind Precip. Elev Updated Type
                   

Watches & Warnings

Small Craft Advisory
Issued: 3:15 AM EST Jan. 24, 2017 – National Weather Service

... Small Craft Advisory remains in effect until 6 PM EST this
evening...

* winds... northwest 15 to 25 kt... with gusts up to 30 kt early
across the waters from off Cape Fear and northward.

* Seas... will peak in the 4 to 7 foot range across the NC waters
and 3 to 6 ft across the SC waters. Dominant periods will run
near 10 seconds this morning... dropping back to 5 to 7 seconds
by midday.

Precautionary/preparedness actions...

A Small Craft Advisory means that wind speeds of 25 to 33 knots
and or seas of 6 ft or greater are expected to produce hazardous
wave conditions to small craft. Inexperienced mariners,
especially those operating smaller vessels should avoid
navigating in these conditions.


Dch